sensor_id;sensor_type;location;lat;lon;timestamp;P1;durP1;ratioP1;P2;durP2;ratioP2
13230;SDS011;6681;53.254;10.398;2023-02-20T00:00:16;3.17;;;2.10;;
13230;SDS011;6681;53.254;10.398;2023-02-20T00:02:46;6.13;;;3.60;;
13230;SDS011;6681;53.254;10.398;2023-02-20T00:05:12;4.07;;;2.33;;
13230;SDS011;6681;53.254;10.398;2023-02-20T00:07:38;5.00;;;2.53;;
13230;SDS011;6681;53.254;10.398;2023-02-20T00:10:04;2.43;;;2.20;;
13230;SDS011;6681;53.254;10.398;2023-02-20T00:12:31;3.87;;;2.63;;
13230;SDS011;6681;53.254;10.398;2023-02-20T00:14:57;6.47;;;2.67;;
13230;SDS011;6681;53.254;10.398;2023-02-20T00:17:22;7.17;;;3.20;;
13230;SDS011;6681;53.254;10.398;2023-02-20T00:19:48;3.90;;;2.00;;
13230;SDS011;6681;53.254;10.398;2023-02-20T00:22:14;5.50;;;3.27;;
13230;SDS011;6681;53.254;10.398;2023-02-20T00:24:39;6.13;;;3.00;;
13230;SDS011;6681;53.254;10.398;2023-02-20T00:27:06;7.60;;;3.30;;
13230;SDS011;6681;53.254;10.398;2023-02-20T00:29:32;4.43;;;2.23;;
13230;SDS011;6681;53.254;10.398;2023-02-20T00:31:57;3.23;;;2.77;;
13230;SDS011;6681;53.254;10.398;2023-02-20T00:34:24;4.00;;;3.20;;
13230;SDS011;6681;53.254;10.398;2023-02-20T00:36:52;4.37;;;3.50;;
13230;SDS011;6681;53.254;10.398;2023-02-20T00:39:18;5.80;;;3.00;;
13230;SDS011;6681;53.254;10.398;2023-02-20T00:41:43;6.97;;;3.33;;
13230;SDS011;6681;53.254;10.398;2023-02-20T00:44:09;4.20;;;3.80;;
13230;SDS011;6681;53.254;10.398;2023-02-20T00:46:35;6.53;;;4.03;;
13230;SDS011;6681;53.254;10.398;2023-02-20T00:49:01;5.20;;;3.70;;
13230;SDS011;6681;53.254;10.398;2023-02-20T00:51:27;6.20;;;3.90;;
13230;SDS011;6681;53.254;10.398;2023-02-20T00:53:53;10.23;;;4.30;;
13230;SDS011;6681;53.254;10.398;2023-02-20T00:56:18;4.70;;;3.83;;
13230;SDS011;6681;53.254;10.398;2023-02-20T00:58:44;5.87;;;4.87;;
13230;SDS011;6681;53.254;10.398;2023-02-20T01:01:09;10.00;;;5.20;;
13230;SDS011;6681;53.254;10.398;2023-02-20T01:03:35;7.83;;;3.53;;
13230;SDS011;6681;53.254;10.398;2023-02-20T01:06:01;4.47;;;4.03;;
13230;SDS011;6681;53.254;10.398;2023-02-20T01:08:26;6.07;;;3.80;;
13230;SDS011;6681;53.254;10.398;2023-02-20T01:10:52;10.03;;;4.27;;
13230;SDS011;6681;53.254;10.398;2023-02-20T01:13:18;5.47;;;4.10;;
13230;SDS011;6681;53.254;10.398;2023-02-20T01:15:43;6.03;;;4.10;;
13230;SDS011;6681;53.254;10.398;2023-02-20T01:18:09;5.30;;;4.07;;
13230;SDS011;6681;53.254;10.398;2023-02-20T01:20:35;5.33;;;3.63;;
13230;SDS011;6681;53.254;10.398;2023-02-20T01:23:01;4.93;;;4.47;;
13230;SDS011;6681;53.254;10.398;2023-02-20T01:25:27;6.97;;;4.10;;
13230;SDS011;6681;53.254;10.398;2023-02-20T01:27:53;9.03;;;4.33;;
13230;SDS011;6681;53.254;10.398;2023-02-20T01:30:19;6.03;;;3.33;;
13230;SDS011;6681;53.254;10.398;2023-02-20T01:32:45;5.10;;;3.80;;
13230;SDS011;6681;53.254;10.398;2023-02-20T01:35:10;6.07;;;3.77;;
13230;SDS011;6681;53.254;10.398;2023-02-20T01:37:36;4.87;;;3.77;;
13230;SDS011;6681;53.254;10.398;2023-02-20T01:40:02;8.20;;;4.10;;
13230;SDS011;6681;53.254;10.398;2023-02-20T01:42:29;6.27;;;3.57;;
13230;SDS011;6681;53.254;10.398;2023-02-20T01:48:04;10.20;;;3.60;;
13230;SDS011;6681;53.254;10.398;2023-02-20T01:50:31;3.57;;;2.50;;
13230;SDS011;6681;53.254;10.398;2023-02-20T01:53:06;5.90;;;4.10;;
13230;SDS011;6681;53.254;10.398;2023-02-20T01:55:39;6.70;;;3.60;;
13230;SDS011;6681;53.254;10.398;2023-02-20T01:58:10;6.40;;;3.70;;
13230;SDS011;6681;53.254;10.398;2023-02-20T02:00:40;5.43;;;3.23;;
13230;SDS011;6681;53.254;10.398;2023-02-20T02:03:13;3.97;;;2.70;;
13230;SDS011;6681;53.254;10.398;2023-02-20T02:05:47;3.43;;;2.90;;
13230;SDS011;6681;53.254;10.398;2023-02-20T02:08:17;7.90;;;3.47;;
13230;SDS011;6681;53.254;10.398;2023-02-20T02:10:46;7.17;;;3.60;;
13230;SDS011;6681;53.254;10.398;2023-02-20T02:13:18;6.40;;;3.33;;
13230;SDS011;6681;53.254;10.398;2023-02-20T02:15:45;4.83;;;2.70;;
13230;SDS011;6681;53.254;10.398;2023-02-20T02:40:13;6.87;;;3.30;;
13230;SDS011;6681;53.254;10.398;2023-02-20T02:45:37;4.80;;;3.67;;
13230;SDS011;6681;53.254;10.398;2023-02-20T02:48:13;3.67;;;2.80;;
13230;SDS011;6681;53.254;10.398;2023-02-20T02:50:46;4.27;;;3.80;;
13230;SDS011;6681;53.254;10.398;2023-02-20T02:53:13;5.87;;;3.83;;
13230;SDS011;6681;53.254;10.398;2023-02-20T02:55:39;6.50;;;3.47;;
13230;SDS011;6681;53.254;10.398;2023-02-20T02:58:05;5.17;;;3.43;;
13230;SDS011;6681;53.254;10.398;2023-02-20T03:00:37;4.50;;;3.50;;
13230;SDS011;6681;53.254;10.398;2023-02-20T03:08:17;5.27;;;3.37;;
13230;SDS011;6681;53.254;10.398;2023-02-20T03:10:46;6.33;;;3.50;;
13230;SDS011;6681;53.254;10.398;2023-02-20T03:13:12;4.93;;;3.97;;
13230;SDS011;6681;53.254;10.398;2023-02-20T03:15:40;3.50;;;3.20;;
13230;SDS011;6681;53.254;10.398;2023-02-20T03:18:23;6.83;;;4.30;;
13230;SDS011;6681;53.254;10.398;2023-02-20T03:21:09;7.00;;;4.30;;
13230;SDS011;6681;53.254;10.398;2023-02-20T03:23:40;5.97;;;4.37;;
13230;SDS011;6681;53.254;10.398;2023-02-20T03:26:15;5.87;;;4.70;;
13230;SDS011;6681;53.254;10.398;2023-02-20T03:28:50;6.17;;;4.43;;
13230;SDS011;6681;53.254;10.398;2023-02-20T03:36:44;9.07;;;6.43;;
13230;SDS011;6681;53.254;10.398;2023-02-20T03:39:33;7.60;;;5.83;;
13230;SDS011;6681;53.254;10.398;2023-02-20T03:42:23;6.37;;;5.30;;
13230;SDS011;6681;53.254;10.398;2023-02-20T03:45:08;6.33;;;5.40;;
13230;SDS011;6681;53.254;10.398;2023-02-20T03:47:36;7.97;;;6.13;;
13230;SDS011;6681;53.254;10.398;2023-02-20T03:50:07;8.43;;;5.43;;
13230;SDS011;6681;53.254;10.398;2023-02-20T03:52:36;7.93;;;5.13;;
13230;SDS011;6681;53.254;10.398;2023-02-20T03:55:02;7.83;;;6.03;;
13230;SDS011;6681;53.254;10.398;2023-02-20T03:57:32;10.00;;;5.80;;
13230;SDS011;6681;53.254;10.398;2023-02-20T04:00:07;5.43;;;4.93;;
13230;SDS011;6681;53.254;10.398;2023-02-20T04:02:41;6.73;;;5.40;;
13230;SDS011;6681;53.254;10.398;2023-02-20T04:05:31;6.90;;;5.40;;
13230;SDS011;6681;53.254;10.398;2023-02-20T04:08:11;7.97;;;4.93;;
13230;SDS011;6681;53.254;10.398;2023-02-20T04:10:42;6.67;;;5.03;;
13230;SDS011;6681;53.254;10.398;2023-02-20T04:13:33;8.37;;;5.73;;
13230;SDS011;6681;53.254;10.398;2023-02-20T04:16:02;9.60;;;6.00;;
13230;SDS011;6681;53.254;10.398;2023-02-20T04:18:31;10.37;;;6.20;;
13230;SDS011;6681;53.254;10.398;2023-02-20T04:20:57;8.63;;;5.73;;
13230;SDS011;6681;53.254;10.398;2023-02-20T04:23:26;8.33;;;5.60;;
13230;SDS011;6681;53.254;10.398;2023-02-20T04:25:56;8.70;;;5.77;;
13230;SDS011;6681;53.254;10.398;2023-02-20T04:28:26;7.73;;;5.93;;
13230;SDS011;6681;53.254;10.398;2023-02-20T04:30:52;8.63;;;5.37;;
13230;SDS011;6681;53.254;10.398;2023-02-20T04:33:18;7.00;;;5.77;;
13230;SDS011;6681;53.254;10.398;2023-02-20T04:35:45;6.97;;;5.87;;
13230;SDS011;6681;53.254;10.398;2023-02-20T04:38:10;8.43;;;5.63;;
13230;SDS011;6681;53.254;10.398;2023-02-20T04:40:40;6.80;;;5.67;;
13230;SDS011;6681;53.254;10.398;2023-02-20T04:43:05;7.67;;;6.23;;
13230;SDS011;6681;53.254;10.398;2023-02-20T04:45:31;9.17;;;6.47;;
13230;SDS011;6681;53.254;10.398;2023-02-20T04:47:57;8.87;;;6.83;;
13230;SDS011;6681;53.254;10.398;2023-02-20T04:52:58;10.47;;;8.30;;
13230;SDS011;6681;53.254;10.398;2023-02-20T04:55:25;8.20;;;6.20;;
13230;SDS011;6681;53.254;10.398;2023-02-20T04:57:51;10.27;;;7.40;;
13230;SDS011;6681;53.254;10.398;2023-02-20T05:00:20;7.53;;;6.23;;
13230;SDS011;6681;53.254;10.398;2023-02-20T05:02:46;10.93;;;7.80;;
13230;SDS011;6681;53.254;10.398;2023-02-20T05:05:22;9.80;;;6.50;;
13230;SDS011;6681;53.254;10.398;2023-02-20T05:10:22;9.63;;;6.87;;
13230;SDS011;6681;53.254;10.398;2023-02-20T05:12:49;8.67;;;7.70;;
13230;SDS011;6681;53.254;10.398;2023-02-20T05:15:15;10.47;;;7.87;;
13230;SDS011;6681;53.254;10.398;2023-02-20T05:17:40;12.57;;;8.90;;
13230;SDS011;6681;53.254;10.398;2023-02-20T05:20:06;11.77;;;7.70;;
13230;SDS011;6681;53.254;10.398;2023-02-20T05:22:32;9.33;;;7.33;;
13230;SDS011;6681;53.254;10.398;2023-02-20T05:24:59;10.87;;;7.93;;
13230;SDS011;6681;53.254;10.398;2023-02-20T05:27:25;13.83;;;8.97;;
13230;SDS011;6681;53.254;10.398;2023-02-20T05:29:53;12.63;;;9.13;;
13230;SDS011;6681;53.254;10.398;2023-02-20T05:32:21;16.50;;;10.23;;
13230;SDS011;6681;53.254;10.398;2023-02-20T05:34:48;12.63;;;7.63;;
13230;SDS011;6681;53.254;10.398;2023-02-20T05:37:15;13.83;;;8.57;;
13230;SDS011;6681;53.254;10.398;2023-02-20T05:39:42;14.07;;;7.90;;
13230;SDS011;6681;53.254;10.398;2023-02-20T05:42:08;12.50;;;9.17;;
13230;SDS011;6681;53.254;10.398;2023-02-20T05:44:34;13.93;;;8.93;;
13230;SDS011;6681;53.254;10.398;2023-02-20T05:47:00;12.97;;;8.43;;
13230;SDS011;6681;53.254;10.398;2023-02-20T05:49:27;12.97;;;8.00;;
13230;SDS011;6681;53.254;10.398;2023-02-20T05:51:54;10.97;;;9.23;;
13230;SDS011;6681;53.254;10.398;2023-02-20T05:54:21;13.53;;;9.30;;
13230;SDS011;6681;53.254;10.398;2023-02-20T05:56:47;14.07;;;10.37;;
13230;SDS011;6681;53.254;10.398;2023-02-20T05:59:15;14.70;;;9.27;;
13230;SDS011;6681;53.254;10.398;2023-02-20T06:01:42;12.70;;;8.97;;
13230;SDS011;6681;53.254;10.398;2023-02-20T06:04:08;12.40;;;8.67;;
13230;SDS011;6681;53.254;10.398;2023-02-20T06:06:35;20.83;;;9.90;;
13230;SDS011;6681;53.254;10.398;2023-02-20T06:09:02;15.47;;;8.50;;
13230;SDS011;6681;53.254;10.398;2023-02-20T06:11:31;16.60;;;9.87;;
13230;SDS011;6681;53.254;10.398;2023-02-20T06:13:57;15.37;;;9.50;;
13230;SDS011;6681;53.254;10.398;2023-02-20T06:16:24;15.20;;;10.13;;
13230;SDS011;6681;53.254;10.398;2023-02-20T06:18:52;17.73;;;10.40;;
13230;SDS011;6681;53.254;10.398;2023-02-20T06:21:19;17.67;;;11.07;;
13230;SDS011;6681;53.254;10.398;2023-02-20T06:23:47;12.93;;;9.77;;
13230;SDS011;6681;53.254;10.398;2023-02-20T06:26:14;15.40;;;10.20;;
13230;SDS011;6681;53.254;10.398;2023-02-20T06:28:40;16.43;;;9.97;;
13230;SDS011;6681;53.254;10.398;2023-02-20T06:31:06;15.57;;;9.97;;
13230;SDS011;6681;53.254;10.398;2023-02-20T06:33:33;16.50;;;9.40;;
13230;SDS011;6681;53.254;10.398;2023-02-20T06:35:59;15.73;;;11.23;;
13230;SDS011;6681;53.254;10.398;2023-02-20T06:38:25;16.43;;;9.87;;
13230;SDS011;6681;53.254;10.398;2023-02-20T06:40:51;14.13;;;10.40;;
13230;SDS011;6681;53.254;10.398;2023-02-20T06:43:17;16.70;;;11.37;;
13230;SDS011;6681;53.254;10.398;2023-02-20T06:45:43;16.43;;;11.77;;
13230;SDS011;6681;53.254;10.398;2023-02-20T06:48:09;13.17;;;9.00;;
13230;SDS011;6681;53.254;10.398;2023-02-20T06:50:35;15.50;;;9.87;;
13230;SDS011;6681;53.254;10.398;2023-02-20T06:53:00;20.37;;;10.67;;
13230;SDS011;6681;53.254;10.398;2023-02-20T06:55:26;17.63;;;9.50;;
13230;SDS011;6681;53.254;10.398;2023-02-20T06:57:52;20.30;;;11.40;;
13230;SDS011;6681;53.254;10.398;2023-02-20T07:00:17;15.70;;;11.23;;
13230;SDS011;6681;53.254;10.398;2023-02-20T07:02:43;15.23;;;11.20;;
13230;SDS011;6681;53.254;10.398;2023-02-20T07:05:10;20.40;;;10.47;;
13230;SDS011;6681;53.254;10.398;2023-02-20T07:07:36;12.93;;;10.07;;
13230;SDS011;6681;53.254;10.398;2023-02-20T07:10:03;13.37;;;9.60;;
13230;SDS011;6681;53.254;10.398;2023-02-20T07:12:33;18.23;;;9.53;;
13230;SDS011;6681;53.254;10.398;2023-02-20T07:15:02;16.07;;;10.80;;
13230;SDS011;6681;53.254;10.398;2023-02-20T07:17:29;19.17;;;11.77;;
13230;SDS011;6681;53.254;10.398;2023-02-20T07:19:54;13.87;;;10.97;;
13230;SDS011;6681;53.254;10.398;2023-02-20T07:22:20;15.43;;;11.13;;
13230;SDS011;6681;53.254;10.398;2023-02-20T07:24:50;21.93;;;12.30;;
13230;SDS011;6681;53.254;10.398;2023-02-20T07:27:16;23.93;;;12.17;;
13230;SDS011;6681;53.254;10.398;2023-02-20T07:29:46;22.77;;;12.00;;
13230;SDS011;6681;53.254;10.398;2023-02-20T07:32:13;22.43;;;11.67;;
13230;SDS011;6681;53.254;10.398;2023-02-20T07:34:44;17.27;;;12.50;;
13230;SDS011;6681;53.254;10.398;2023-02-20T07:37:10;19.93;;;11.50;;
13230;SDS011;6681;53.254;10.398;2023-02-20T07:39:36;13.07;;;11.37;;
13230;SDS011;6681;53.254;10.398;2023-02-20T07:42:02;15.07;;;11.07;;
13230;SDS011;6681;53.254;10.398;2023-02-20T07:44:28;18.50;;;12.67;;
13230;SDS011;6681;53.254;10.398;2023-02-20T07:46:53;24.30;;;13.63;;
13230;SDS011;6681;53.254;10.398;2023-02-20T07:49:19;17.57;;;12.13;;
13230;SDS011;6681;53.254;10.398;2023-02-20T07:51:44;22.40;;;11.67;;
13230;SDS011;6681;53.254;10.398;2023-02-20T07:54:10;16.10;;;11.87;;
13230;SDS011;6681;53.254;10.398;2023-02-20T07:56:36;19.30;;;12.47;;
13230;SDS011;6681;53.254;10.398;2023-02-20T07:59:01;19.50;;;13.37;;
13230;SDS011;6681;53.254;10.398;2023-02-20T08:01:27;17.30;;;12.97;;
13230;SDS011;6681;53.254;10.398;2023-02-20T08:03:53;20.37;;;14.10;;
13230;SDS011;6681;53.254;10.398;2023-02-20T08:06:19;21.20;;;13.23;;
13230;SDS011;6681;53.254;10.398;2023-02-20T08:08:48;16.80;;;13.53;;
13230;SDS011;6681;53.254;10.398;2023-02-20T08:11:15;19.23;;;13.53;;
13230;SDS011;6681;53.254;10.398;2023-02-20T08:13:42;18.83;;;13.63;;
13230;SDS011;6681;53.254;10.398;2023-02-20T08:16:08;26.77;;;14.50;;
13230;SDS011;6681;53.254;10.398;2023-02-20T08:18:35;19.80;;;12.70;;
13230;SDS011;6681;53.254;10.398;2023-02-20T08:21:00;21.27;;;14.77;;
13230;SDS011;6681;53.254;10.398;2023-02-20T08:23:26;19.13;;;14.00;;
13230;SDS011;6681;53.254;10.398;2023-02-20T08:25:52;22.90;;;16.07;;
13230;SDS011;6681;53.254;10.398;2023-02-20T08:28:18;21.60;;;15.03;;
13230;SDS011;6681;53.254;10.398;2023-02-20T08:30:44;26.73;;;15.20;;
13230;SDS011;6681;53.254;10.398;2023-02-20T08:33:10;24.23;;;15.83;;
13230;SDS011;6681;53.254;10.398;2023-02-20T08:35:36;29.03;;;16.53;;
13230;SDS011;6681;53.254;10.398;2023-02-20T08:38:02;22.90;;;16.57;;
13230;SDS011;6681;53.254;10.398;2023-02-20T08:40:29;23.97;;;15.67;;
13230;SDS011;6681;53.254;10.398;2023-02-20T08:42:55;26.60;;;18.60;;
13230;SDS011;6681;53.254;10.398;2023-02-20T08:45:20;27.00;;;20.37;;
13230;SDS011;6681;53.254;10.398;2023-02-20T08:47:47;22.17;;;17.33;;
13230;SDS011;6681;53.254;10.398;2023-02-20T08:50:13;29.60;;;19.23;;
13230;SDS011;6681;53.254;10.398;2023-02-20T08:52:41;24.80;;;18.07;;
13230;SDS011;6681;53.254;10.398;2023-02-20T08:55:07;30.67;;;18.57;;
13230;SDS011;6681;53.254;10.398;2023-02-20T08:57:33;28.87;;;18.87;;
13230;SDS011;6681;53.254;10.398;2023-02-20T08:59:59;28.70;;;19.13;;
13230;SDS011;6681;53.254;10.398;2023-02-20T09:02:25;26.40;;;17.83;;
13230;SDS011;6681;53.254;10.398;2023-02-20T09:04:53;28.17;;;19.50;;
13230;SDS011;6681;53.254;10.398;2023-02-20T09:07:19;27.60;;;20.53;;
13230;SDS011;6681;53.254;10.398;2023-02-20T09:09:45;29.70;;;19.53;;
13230;SDS011;6681;53.254;10.398;2023-02-20T09:12:11;29.43;;;19.77;;
13230;SDS011;6681;53.254;10.398;2023-02-20T09:14:37;32.70;;;23.00;;
13230;SDS011;6681;53.254;10.398;2023-02-20T09:17:03;27.33;;;21.07;;
13230;SDS011;6681;53.254;10.398;2023-02-20T09:19:29;29.00;;;21.00;;
13230;SDS011;6681;53.254;10.398;2023-02-20T09:21:55;29.50;;;19.53;;
13230;SDS011;6681;53.254;10.398;2023-02-20T09:24:21;36.10;;;22.33;;
13230;SDS011;6681;53.254;10.398;2023-02-20T09:26:47;29.30;;;22.50;;
13230;SDS011;6681;53.254;10.398;2023-02-20T09:29:12;33.57;;;22.80;;
13230;SDS011;6681;53.254;10.398;2023-02-20T09:31:38;28.27;;;19.97;;
13230;SDS011;6681;53.254;10.398;2023-02-20T09:34:04;33.37;;;20.83;;
13230;SDS011;6681;53.254;10.398;2023-02-20T09:36:29;30.70;;;21.33;;
13230;SDS011;6681;53.254;10.398;2023-02-20T09:38:55;41.80;;;22.87;;
13230;SDS011;6681;53.254;10.398;2023-02-20T09:41:45;40.60;;;24.13;;
13230;SDS011;6681;53.254;10.398;2023-02-20T09:49:47;33.50;;;22.77;;
13230;SDS011;6681;53.254;10.398;2023-02-20T09:52:14;36.17;;;24.13;;
13230;SDS011;6681;53.254;10.398;2023-02-20T09:54:51;33.57;;;22.57;;
13230;SDS011;6681;53.254;10.398;2023-02-20T09:57:26;37.87;;;23.53;;
13230;SDS011;6681;53.254;10.398;2023-02-20T09:59:57;39.50;;;26.07;;
13230;SDS011;6681;53.254;10.398;2023-02-20T10:02:41;37.37;;;23.13;;
13230;SDS011;6681;53.254;10.398;2023-02-20T10:05:20;38.30;;;24.97;;
13230;SDS011;6681;53.254;10.398;2023-02-20T10:07:48;42.77;;;25.27;;
13230;SDS011;6681;53.254;10.398;2023-02-20T10:10:31;37.47;;;25.83;;
13230;SDS011;6681;53.254;10.398;2023-02-20T10:25:53;40.27;;;24.83;;
13230;SDS011;6681;53.254;10.398;2023-02-20T10:28:23;41.40;;;24.57;;
13230;SDS011;6681;53.254;10.398;2023-02-20T10:33:45;37.30;;;24.17;;
13230;SDS011;6681;53.254;10.398;2023-02-20T10:39:07;42.87;;;26.47;;
13230;SDS011;6681;53.254;10.398;2023-02-20T10:44:35;46.47;;;26.03;;
13230;SDS011;6681;53.254;10.398;2023-02-20T10:47:32;43.13;;;22.87;;
13230;SDS011;6681;53.254;10.398;2023-02-20T10:52:51;45.80;;;25.83;;
13230;SDS011;6681;53.254;10.398;2023-02-20T10:55:26;37.87;;;22.33;;
13230;SDS011;6681;53.254;10.398;2023-02-20T10:58:24;42.73;;;24.97;;
13230;SDS011;6681;53.254;10.398;2023-02-20T11:01:01;37.27;;;24.13;;
13230;SDS011;6681;53.254;10.398;2023-02-20T11:05:56;40.67;;;22.77;;
13230;SDS011;6681;53.254;10.398;2023-02-20T11:08:26;45.53;;;24.10;;
13230;SDS011;6681;53.254;10.398;2023-02-20T11:10:52;42.50;;;23.00;;
13230;SDS011;6681;53.254;10.398;2023-02-20T11:13:22;37.77;;;22.93;;
13230;SDS011;6681;53.254;10.398;2023-02-20T11:15:49;39.83;;;22.50;;
13230;SDS011;6681;53.254;10.398;2023-02-20T11:18:21;40.00;;;24.20;;
13230;SDS011;6681;53.254;10.398;2023-02-20T11:20:50;37.20;;;21.97;;
13230;SDS011;6681;53.254;10.398;2023-02-20T11:24:00;36.60;;;22.53;;
13230;SDS011;6681;53.254;10.398;2023-02-20T11:26:12;37.00;;;21.83;;
13230;SDS011;6681;53.254;10.398;2023-02-20T11:28:57;38.87;;;21.30;;
13230;SDS011;6681;53.254;10.398;2023-02-20T11:31:24;33.63;;;21.73;;
13230;SDS011;6681;53.254;10.398;2023-02-20T11:33:50;36.93;;;22.30;;
13230;SDS011;6681;53.254;10.398;2023-02-20T11:36:21;38.93;;;21.50;;
13230;SDS011;6681;53.254;10.398;2023-02-20T11:38:55;36.80;;;21.83;;
13230;SDS011;6681;53.254;10.398;2023-02-20T11:44:04;34.73;;;21.50;;
13230;SDS011;6681;53.254;10.398;2023-02-20T11:46:32;31.43;;;20.60;;
13230;SDS011;6681;53.254;10.398;2023-02-20T11:54:08;32.83;;;20.13;;
13230;SDS011;6681;53.254;10.398;2023-02-20T11:59:42;29.67;;;19.43;;
13230;SDS011;6681;53.254;10.398;2023-02-20T12:04:44;29.30;;;18.57;;
13230;SDS011;6681;53.254;10.398;2023-02-20T12:07:35;29.50;;;17.53;;
13230;SDS011;6681;53.254;10.398;2023-02-20T12:12:54;30.50;;;16.33;;
13230;SDS011;6681;53.254;10.398;2023-02-20T12:15:21;27.77;;;15.93;;
13230;SDS011;6681;53.254;10.398;2023-02-20T12:17:57;19.07;;;14.50;;
13230;SDS011;6681;53.254;10.398;2023-02-20T12:20:46;19.67;;;13.13;;
13230;SDS011;6681;53.254;10.398;2023-02-20T12:31:59;19.60;;;12.03;;
13230;SDS011;6681;53.254;10.398;2023-02-20T12:48:24;20.23;;;9.47;;
13230;SDS011;6681;53.254;10.398;2023-02-20T12:51:12;17.73;;;9.50;;
13230;SDS011;6681;53.254;10.398;2023-02-20T13:04:59;15.77;;;8.40;;
13230;SDS011;6681;53.254;10.398;2023-02-20T13:07:46;15.83;;;8.33;;
13230;SDS011;6681;53.254;10.398;2023-02-20T13:10:37;11.17;;;8.30;;
13230;SDS011;6681;53.254;10.398;2023-02-20T13:13:12;11.40;;;7.77;;
13230;SDS011;6681;53.254;10.398;2023-02-20T13:18:26;13.20;;;7.37;;
13230;SDS011;6681;53.254;10.398;2023-02-20T13:21:28;10.90;;;8.07;;
13230;SDS011;6681;53.254;10.398;2023-02-20T13:24:11;10.67;;;7.90;;
13230;SDS011;6681;53.254;10.398;2023-02-20T13:26:51;16.97;;;8.47;;
13230;SDS011;6681;53.254;10.398;2023-02-20T13:29:25;14.93;;;9.27;;
13230;SDS011;6681;53.254;10.398;2023-02-20T13:31:57;12.57;;;8.43;;
13230;SDS011;6681;53.254;10.398;2023-02-20T13:34:41;10.23;;;8.70;;
13230;SDS011;6681;53.254;10.398;2023-02-20T13:40:32;12.23;;;8.23;;
13230;SDS011;6681;53.254;10.398;2023-02-20T13:43:10;12.53;;;8.67;;
13230;SDS011;6681;53.254;10.398;2023-02-20T13:46:09;10.93;;;8.40;;
13230;SDS011;6681;53.254;10.398;2023-02-20T13:53:41;13.63;;;8.47;;
13230;SDS011;6681;53.254;10.398;2023-02-20T13:58:43;12.90;;;10.27;;
13230;SDS011;6681;53.254;10.398;2023-02-20T14:01:09;9.87;;;7.70;;
13230;SDS011;6681;53.254;10.398;2023-02-20T14:03:36;19.07;;;10.27;;
13230;SDS011;6681;53.254;10.398;2023-02-20T14:06:03;15.47;;;8.73;;
13230;SDS011;6681;53.254;10.398;2023-02-20T14:08:32;13.73;;;8.80;;
13230;SDS011;6681;53.254;10.398;2023-02-20T14:11:13;14.30;;;9.10;;
13230;SDS011;6681;53.254;10.398;2023-02-20T14:13:40;12.23;;;7.63;;
13230;SDS011;6681;53.254;10.398;2023-02-20T14:16:22;11.00;;;8.60;;
13230;SDS011;6681;53.254;10.398;2023-02-20T14:18:58;11.97;;;8.23;;
13230;SDS011;6681;53.254;10.398;2023-02-20T14:21:26;11.13;;;7.77;;
13230;SDS011;6681;53.254;10.398;2023-02-20T14:23:53;15.10;;;8.70;;
13230;SDS011;6681;53.254;10.398;2023-02-20T14:26:29;17.93;;;8.07;;
13230;SDS011;6681;53.254;10.398;2023-02-20T14:28:57;13.67;;;8.53;;
13230;SDS011;6681;53.254;10.398;2023-02-20T14:31:29;15.90;;;8.00;;
13230;SDS011;6681;53.254;10.398;2023-02-20T14:36:44;12.60;;;8.53;;
13230;SDS011;6681;53.254;10.398;2023-02-20T14:39:26;10.43;;;7.40;;
13230;SDS011;6681;53.254;10.398;2023-02-20T14:42:04;17.47;;;8.80;;
13230;SDS011;6681;53.254;10.398;2023-02-20T14:44:37;14.47;;;7.03;;
13230;SDS011;6681;53.254;10.398;2023-02-20T14:47:07;16.33;;;6.97;;
13230;SDS011;6681;53.254;10.398;2023-02-20T14:49:37;10.13;;;7.63;;
13230;SDS011;6681;53.254;10.398;2023-02-20T14:54:37;23.43;;;8.10;;
13230;SDS011;6681;53.254;10.398;2023-02-20T14:57:04;8.50;;;7.27;;
13230;SDS011;6681;53.254;10.398;2023-02-20T14:59:32;8.63;;;6.03;;
13230;SDS011;6681;53.254;10.398;2023-02-20T15:02:00;8.57;;;6.53;;
13230;SDS011;6681;53.254;10.398;2023-02-20T15:04:29;7.50;;;6.50;;
13230;SDS011;6681;53.254;10.398;2023-02-20T15:07:03;16.70;;;7.30;;
13230;SDS011;6681;53.254;10.398;2023-02-20T15:09:35;14.80;;;6.73;;
13230;SDS011;6681;53.254;10.398;2023-02-20T15:12:02;8.43;;;5.67;;
13230;SDS011;6681;53.254;10.398;2023-02-20T15:14:30;15.83;;;7.37;;
13230;SDS011;6681;53.254;10.398;2023-02-20T15:19:47;10.23;;;6.40;;
13230;SDS011;6681;53.254;10.398;2023-02-20T15:33:36;11.30;;;7.90;;
13230;SDS011;6681;53.254;10.398;2023-02-20T15:36:04;11.60;;;7.37;;
13230;SDS011;6681;53.254;10.398;2023-02-20T15:38:32;12.23;;;8.43;;
13230;SDS011;6681;53.254;10.398;2023-02-20T15:41:00;12.97;;;7.20;;
13230;SDS011;6681;53.254;10.398;2023-02-20T15:43:27;11.53;;;7.53;;
13230;SDS011;6681;53.254;10.398;2023-02-20T15:45:53;13.33;;;7.33;;
13230;SDS011;6681;53.254;10.398;2023-02-20T15:48:20;16.50;;;8.53;;
13230;SDS011;6681;53.254;10.398;2023-02-20T15:50:49;15.23;;;7.57;;
13230;SDS011;6681;53.254;10.398;2023-02-20T15:53:25;12.80;;;7.17;;
13230;SDS011;6681;53.254;10.398;2023-02-20T15:55:53;10.87;;;7.73;;
13230;SDS011;6681;53.254;10.398;2023-02-20T16:01:01;13.43;;;8.13;;
13230;SDS011;6681;53.254;10.398;2023-02-20T16:03:28;15.30;;;7.27;;
13230;SDS011;6681;53.254;10.398;2023-02-20T16:05:55;21.73;;;9.40;;
13230;SDS011;6681;53.254;10.398;2023-02-20T16:08:22;14.23;;;9.23;;
13230;SDS011;6681;53.254;10.398;2023-02-20T16:10:49;13.60;;;9.60;;
13230;SDS011;6681;53.254;10.398;2023-02-20T16:15:49;16.37;;;9.67;;
13230;SDS011;6681;53.254;10.398;2023-02-20T16:18:15;16.40;;;9.40;;
13230;SDS011;6681;53.254;10.398;2023-02-20T16:20:41;13.97;;;10.33;;
13230;SDS011;6681;53.254;10.398;2023-02-20T16:23:07;18.03;;;9.57;;
13230;SDS011;6681;53.254;10.398;2023-02-20T16:25:34;36.40;;;10.50;;
13230;SDS011;6681;53.254;10.398;2023-02-20T16:28:00;19.83;;;10.17;;
13230;SDS011;6681;53.254;10.398;2023-02-20T16:33:00;21.50;;;9.83;;
13230;SDS011;6681;53.254;10.398;2023-02-20T16:35:27;16.97;;;9.00;;
13230;SDS011;6681;53.254;10.398;2023-02-20T16:37:52;13.73;;;10.17;;
13230;SDS011;6681;53.254;10.398;2023-02-20T16:40:18;11.40;;;7.53;;
13230;SDS011;6681;53.254;10.398;2023-02-20T16:42:44;13.80;;;11.03;;
13230;SDS011;6681;53.254;10.398;2023-02-20T16:45:11;14.17;;;9.57;;
13230;SDS011;6681;53.254;10.398;2023-02-20T16:47:39;17.37;;;11.10;;
13230;SDS011;6681;53.254;10.398;2023-02-20T16:50:05;17.47;;;10.63;;
13230;SDS011;6681;53.254;10.398;2023-02-20T16:52:38;17.93;;;10.87;;
13230;SDS011;6681;53.254;10.398;2023-02-20T16:55:27;20.40;;;10.83;;
13230;SDS011;6681;53.254;10.398;2023-02-20T16:57:55;16.53;;;10.77;;
13230;SDS011;6681;53.254;10.398;2023-02-20T17:00:22;13.40;;;9.87;;
13230;SDS011;6681;53.254;10.398;2023-02-20T17:02:50;14.17;;;10.27;;
13230;SDS011;6681;53.254;10.398;2023-02-20T17:05:18;20.10;;;11.73;;
13230;SDS011;6681;53.254;10.398;2023-02-20T17:07:45;14.97;;;9.83;;
13230;SDS011;6681;53.254;10.398;2023-02-20T17:10:11;17.37;;;11.77;;
13230;SDS011;6681;53.254;10.398;2023-02-20T17:12:37;15.83;;;11.37;;
13230;SDS011;6681;53.254;10.398;2023-02-20T17:15:03;13.33;;;10.50;;
13230;SDS011;6681;53.254;10.398;2023-02-20T17:17:30;17.67;;;11.63;;
13230;SDS011;6681;53.254;10.398;2023-02-20T17:19:57;24.00;;;12.13;;
13230;SDS011;6681;53.254;10.398;2023-02-20T17:22:24;15.70;;;13.00;;
13230;SDS011;6681;53.254;10.398;2023-02-20T17:24:50;19.97;;;10.63;;
13230;SDS011;6681;53.254;10.398;2023-02-20T17:27:16;16.83;;;11.33;;
13230;SDS011;6681;53.254;10.398;2023-02-20T17:29:43;20.03;;;11.57;;
13230;SDS011;6681;53.254;10.398;2023-02-20T17:32:10;20.37;;;13.07;;